sensor_id;sensor_type;location;lat;lon;timestamp;P1;P4;P2;P0;N10;N4;N25;N1;N05;TS
42106;SPS30;27764;50.278;19.032;2023-03-08T00:02:40;18;;18;;;;;;;
42106;SPS30;27764;50.278;19.032;2023-03-08T00:05:54;20;;20;;;;;;;
42106;SPS30;27764;50.278;19.032;2023-03-08T00:09:08;19;;19;;;;;;;
42106;SPS30;27764;50.278;19.032;2023-03-08T00:12:22;20;;20;;;;;;;
42106;SPS30;27764;50.278;19.032;2023-03-08T00:15:37;20;;20;;;;;;;
42106;SPS30;27764;50.278;19.032;2023-03-08T00:19:23;20;;20;;;;;;;
42106;SPS30;27764;50.278;19.032;2023-03-08T00:22:38;21;;21;;;;;;;
42106;SPS30;27764;50.278;19.032;2023-03-08T00:25:52;22;;21;;;;;;;
42106;SPS30;27764;50.278;19.032;2023-03-08T00:29:07;19;;19;;;;;;;
42106;SPS30;27764;50.278;19.032;2023-03-08T05:32:32;14;;13;;;;;;;
42106;SPS30;27764;50.278;19.032;2023-03-08T05:35:51;12;;12;;;;;;;
42106;SPS30;27764;50.278;19.032;2023-03-08T05:39:07;13;;12;;;;;;;
42106;SPS30;27764;50.278;19.032;2023-03-08T05:42:23;11;;11;;;;;;;
42106;SPS30;27764;50.278;19.032;2023-03-08T05:45:37;11;;11;;;;;;;
42106;SPS30;27764;50.278;19.032;2023-03-08T05:48:51;13;;13;;;;;;;
42106;SPS30;27764;50.278;19.032;2023-03-08T05:52:38;12;;12;;;;;;;
42106;SPS30;27764;50.278;19.032;2023-03-08T05:55:54;12;;12;;;;;;;
42106;SPS30;27764;50.278;19.032;2023-03-08T05:59:08;13;;13;;;;;;;
42106;SPS30;27764;50.278;19.032;2023-03-08T06:02:22;12;;12;;;;;;;
42106;SPS30;27764;50.278;19.032;2023-03-08T06:05:36;12;;12;;;;;;;
42106;SPS30;27764;50.278;19.032;2023-03-08T06:09:21;13;;13;;;;;;;
42106;SPS30;27764;50.278;19.032;2023-03-08T06:12:35;12;;12;;;;;;;
42106;SPS30;27764;50.278;19.032;2023-03-08T06:15:52;14;;14;;;;;;;
42106;SPS30;27764;50.278;19.032;2023-03-08T06:19:07;13;;13;;;;;;;
42106;SPS30;27764;50.278;19.032;2023-03-08T06:22:21;12;;12;;;;;;;
42106;SPS30;27764;50.278;19.032;2023-03-08T06:26:13;14;;14;;;;;;;
42106;SPS30;27764;50.278;19.032;2023-03-08T06:29:27;15;;14;;;;;;;
42106;SPS30;27764;50.278;19.032;2023-03-08T06:32:41;14;;14;;;;;;;
42106;SPS30;27764;50.278;19.032;2023-03-08T06:35:59;13;;13;;;;;;;
42106;SPS30;27764;50.278;19.032;2023-03-08T06:40:01;13;;13;;;;;;;
42106;SPS30;27764;50.278;19.032;2023-03-08T06:43:20;14;;14;;;;;;;
42106;SPS30;27764;50.278;19.032;2023-03-08T06:46:35;14;;13;;;;;;;
42106;SPS30;27764;50.278;19.032;2023-03-08T06:49:48;14;;14;;;;;;;
42106;SPS30;27764;50.278;19.032;2023-03-08T06:53:04;15;;15;;;;;;;
42106;SPS30;27764;50.278;19.032;2023-03-08T06:56:48;16;;16;;;;;;;
42106;SPS30;27764;50.278;19.032;2023-03-08T07:00:02;16;;16;;;;;;;
42106;SPS30;27764;50.278;19.032;2023-03-08T07:03:17;17;;17;;;;;;;
42106;SPS30;27764;50.278;19.032;2023-03-08T07:06:30;18;;18;;;;;;;
42106;SPS30;27764;50.278;19.032;2023-03-08T07:09:44;17;;17;;;;;;;
42106;SPS30;27764;50.278;19.032;2023-03-08T07:13:29;14;;14;;;;;;;
42106;SPS30;27764;50.278;19.032;2023-03-08T07:16:43;16;;16;;;;;;;
42106;SPS30;27764;50.278;19.032;2023-03-08T07:19:57;18;;18;;;;;;;
42106;SPS30;27764;50.278;19.032;2023-03-08T07:23:11;14;;14;;;;;;;
42106;SPS30;27764;50.278;19.032;2023-03-08T07:26:25;16;;16;;;;;;;
42106;SPS30;27764;50.278;19.032;2023-03-08T07:30:11;15;;15;;;;;;;
42106;SPS30;27764;50.278;19.032;2023-03-08T07:33:26;15;;15;;;;;;;
42106;SPS30;27764;50.278;19.032;2023-03-08T07:36:40;16;;16;;;;;;;
42106;SPS30;27764;50.278;19.032;2023-03-08T07:39:55;15;;15;;;;;;;
42106;SPS30;27764;50.278;19.032;2023-03-08T07:43:08;15;;15;;;;;;;
42106;SPS30;27764;50.278;19.032;2023-03-08T07:46:58;16;;16;;;;;;;
42106;SPS30;27764;50.278;19.032;2023-03-08T07:50:12;14;;14;;;;;;;
42106;SPS30;27764;50.278;19.032;2023-03-08T07:53:26;15;;15;;;;;;;
42106;SPS30;27764;50.278;19.032;2023-03-08T07:56:40;14;;13;;;;;;;
42106;SPS30;27764;50.278;19.032;2023-03-08T07:59:54;17;;16;;;;;;;
42106;SPS30;27764;50.278;19.032;2023-03-08T08:03:42;17;;17;;;;;;;
42106;SPS30;27764;50.278;19.032;2023-03-08T08:06:56;14;;14;;;;;;;
42106;SPS30;27764;50.278;19.032;2023-03-08T08:10:12;18;;18;;;;;;;
42106;SPS30;27764;50.278;19.032;2023-03-08T08:13:26;16;;16;;;;;;;
42106;SPS30;27764;50.278;19.032;2023-03-08T08:16:40;17;;17;;;;;;;
42106;SPS30;27764;50.278;19.032;2023-03-08T08:20:35;17;;16;;;;;;;
42106;SPS30;27764;50.278;19.032;2023-03-08T08:23:49;17;;16;;;;;;;
42106;SPS30;27764;50.278;19.032;2023-03-08T08:27:04;18;;18;;;;;;;
42106;SPS30;27764;50.278;19.032;2023-03-08T08:30:18;16;;16;;;;;;;
42106;SPS30;27764;50.278;19.032;2023-03-08T08:33:32;18;;18;;;;;;;
42106;SPS30;27764;50.278;19.032;2023-03-08T08:37:18;16;;16;;;;;;;
42106;SPS30;27764;50.278;19.032;2023-03-08T08:40:32;17;;17;;;;;;;
42106;SPS30;27764;50.278;19.032;2023-03-08T08:43:46;18;;18;;;;;;;
42106;SPS30;27764;50.278;19.032;2023-03-08T08:47:01;17;;17;;;;;;;
42106;SPS30;27764;50.278;19.032;2023-03-08T08:50:17;18;;18;;;;;;;
42106;SPS30;27764;50.278;19.032;2023-03-08T08:54:11;15;;15;;;;;;;
42106;SPS30;27764;50.278;19.032;2023-03-08T08:57:25;19;;19;;;;;;;
42106;SPS30;27764;50.278;19.032;2023-03-08T09:00:39;22;;21;;;;;;;
42106;SPS30;27764;50.278;19.032;2023-03-08T09:03:53;23;;23;;;;;;;
42106;SPS30;27764;50.278;19.032;2023-03-08T09:07:08;27;;27;;;;;;;
42106;SPS30;27764;50.278;19.032;2023-03-08T09:10:55;24;;24;;;;;;;
42106;SPS30;27764;50.278;19.032;2023-03-08T09:14:18;25;;24;;;;;;;
42106;SPS30;27764;50.278;19.032;2023-03-08T09:17:32;25;;25;;;;;;;
42106;SPS30;27764;50.278;19.032;2023-03-08T09:20:46;23;;23;;;;;;;
42106;SPS30;27764;50.278;19.032;2023-03-08T09:24:51;24;;23;;;;;;;
42106;SPS30;27764;50.278;19.032;2023-03-08T09:28:05;20;;20;;;;;;;
42106;SPS30;27764;50.278;19.032;2023-03-08T09:31:19;18;;18;;;;;;;
42106;SPS30;27764;50.278;19.032;2023-03-08T09:34:33;18;;18;;;;;;;
42106;SPS30;27764;50.278;19.032;2023-03-08T09:37:47;19;;19;;;;;;;
42106;SPS30;27764;50.278;19.032;2023-03-08T09:48:26;18;;18;;;;;;;
42106;SPS30;27764;50.278;19.032;2023-03-08T09:51:43;16;;16;;;;;;;
42106;SPS30;27764;50.278;19.032;2023-03-08T09:55:32;16;;15;;;;;;;
42106;SPS30;27764;50.278;19.032;2023-03-08T09:58:49;17;;17;;;;;;;
42106;SPS30;27764;50.278;19.032;2023-03-08T10:05:35;18;;18;;;;;;;
42106;SPS30;27764;50.278;19.032;2023-03-08T10:09:38;15;;15;;;;;;;
42106;SPS30;27764;50.278;19.032;2023-03-08T10:16:25;16;;16;;;;;;;
42106;SPS30;27764;50.278;19.032;2023-03-08T10:19:43;15;;15;;;;;;;
42106;SPS30;27764;50.278;19.032;2023-03-08T10:23:37;13;;13;;;;;;;
42106;SPS30;27764;50.278;19.032;2023-03-08T10:26:53;14;;14;;;;;;;
42106;SPS30;27764;50.278;19.032;2023-03-08T10:30:14;15;;15;;;;;;;
42106;SPS30;27764;50.278;19.032;2023-03-08T10:33:32;14;;14;;;;;;;
42106;SPS30;27764;50.278;19.032;2023-03-08T10:37:30;13;;13;;;;;;;
42106;SPS30;27764;50.278;19.032;2023-03-08T10:40:45;13;;13;;;;;;;
42106;SPS30;27764;50.278;19.032;2023-03-08T10:43:59;14;;14;;;;;;;
42106;SPS30;27764;50.278;19.032;2023-03-08T10:47:17;12;;12;;;;;;;
42106;SPS30;27764;50.278;19.032;2023-03-08T10:50:34;13;;13;;;;;;;
42106;SPS30;27764;50.278;19.032;2023-03-08T10:54:23;14;;14;;;;;;;
42106;SPS30;27764;50.278;19.032;2023-03-08T10:57:37;14;;14;;;;;;;
42106;SPS30;27764;50.278;19.032;2023-03-08T11:00:53;14;;14;;;;;;;
42106;SPS30;27764;50.278;19.032;2023-03-08T11:07:31;13;;13;;;;;;;
42106;SPS30;27764;50.278;19.032;2023-03-08T11:11:18;12;;12;;;;;;;
42106;SPS30;27764;50.278;19.032;2023-03-08T11:14:32;11;;11;;;;;;;
42106;SPS30;27764;50.278;19.032;2023-03-08T11:36:21;10;;10;;;;;;;
42106;SPS30;27764;50.278;19.032;2023-03-08T11:57:21;13;;12;;;;;;;
42106;SPS30;27764;50.278;19.032;2023-03-08T12:00:39;11;;11;;;;;;;
42106;SPS30;27764;50.278;19.032;2023-03-08T12:07:53;13;;12;;;;;;;
42106;SPS30;27764;50.278;19.032;2023-03-08T12:14:47;11;;11;;;;;;;
42106;SPS30;27764;50.278;19.032;2023-03-08T12:18:41;12;;12;;;;;;;
42106;SPS30;27764;50.278;19.032;2023-03-08T12:22:09;10;;10;;;;;;;
42106;SPS30;27764;50.278;19.032;2023-03-08T12:25:32;13;;13;;;;;;;
42106;SPS30;27764;50.278;19.032;2023-03-08T12:32:43;12;;12;;;;;;;
42106;SPS30;27764;50.278;19.032;2023-03-08T12:36:03;11;;11;;;;;;;
42106;SPS30;27764;50.278;19.032;2023-03-08T12:39:37;10;;10;;;;;;;
42106;SPS30;27764;50.278;19.032;2023-03-08T12:42:45;8;;8;;;;;;;
42106;SPS30;27764;50.278;19.032;2023-03-08T12:53:31;9;;9;;;;;;;
42106;SPS30;27764;50.278;19.032;2023-03-08T12:56:50;9;;9;;;;;;;
42106;SPS30;27764;50.278;19.032;2023-03-08T13:07:53;9;;9;;;;;;;
42106;SPS30;27764;50.278;19.032;2023-03-08T13:11:09;7;;7;;;;;;;
42106;SPS30;27764;50.278;19.032;2023-03-08T13:15:05;9;;9;;;;;;;
42106;SPS30;27764;50.278;19.032;2023-03-08T13:18:25;9;;9;;;;;;;
42106;SPS30;27764;50.278;19.032;2023-03-08T13:21:46;8;;8;;;;;;;
42106;SPS30;27764;50.278;19.032;2023-03-08T13:25:08;9;;9;;;;;;;
42106;SPS30;27764;50.278;19.032;2023-03-08T13:29:08;9;;9;;;;;;;
42106;SPS30;27764;50.278;19.032;2023-03-08T13:32:25;8;;8;;;;;;;
42106;SPS30;27764;50.278;19.032;2023-03-08T13:35:39;9;;9;;;;;;;
42106;SPS30;27764;50.278;19.032;2023-03-08T13:39:04;9;;9;;;;;;;
42106;SPS30;27764;50.278;19.032;2023-03-08T13:42:59;8;;8;;;;;;;
42106;SPS30;27764;50.278;19.032;2023-03-08T13:46:17;8;;8;;;;;;;
42106;SPS30;27764;50.278;19.032;2023-03-08T13:49:32;8;;8;;;;;;;
42106;SPS30;27764;50.278;19.032;2023-03-08T13:52:49;9;;9;;;;;;;
42106;SPS30;27764;50.278;19.032;2023-03-08T13:56:04;8;;8;;;;;;;
42106;SPS30;27764;50.278;19.032;2023-03-08T13:59:53;8;;8;;;;;;;
42106;SPS30;27764;50.278;19.032;2023-03-08T14:03:18;7;;7;;;;;;;
42106;SPS30;27764;50.278;19.032;2023-03-08T14:06:32;5;;5;;;;;;;
42106;SPS30;27764;50.278;19.032;2023-03-08T14:09:50;7;;7;;;;;;;
42106;SPS30;27764;50.278;19.032;2023-03-08T14:13:47;7;;7;;;;;;;
42106;SPS30;27764;50.278;19.032;2023-03-08T14:17:04;8;;8;;;;;;;
42106;SPS30;27764;50.278;19.032;2023-03-08T14:20:21;7;;7;;;;;;;
42106;SPS30;27764;50.278;19.032;2023-03-08T14:23:39;7;;7;;;;;;;
42106;SPS30;27764;50.278;19.032;2023-03-08T14:27:02;5;;5;;;;;;;
42106;SPS30;27764;50.278;19.032;2023-03-08T14:30:54;6;;6;;;;;;;
42106;SPS30;27764;50.278;19.032;2023-03-08T14:34:18;5;;5;;;;;;;
42106;SPS30;27764;50.278;19.032;2023-03-08T14:37:33;7;;7;;;;;;;
42106;SPS30;27764;50.278;19.032;2023-03-08T14:40:47;6;;6;;;;;;;
42106;SPS30;27764;50.278;19.032;2023-03-08T14:44:02;6;;6;;;;;;;
42106;SPS30;27764;50.278;19.032;2023-03-08T14:47:54;7;;7;;;;;;;
42106;SPS30;27764;50.278;19.032;2023-03-08T14:54:35;7;;7;;;;;;;
42106;SPS30;27764;50.278;19.032;2023-03-08T14:57:54;7;;7;;;;;;;
42106;SPS30;27764;50.278;19.032;2023-03-08T15:01:43;8;;8;;;;;;;
42106;SPS30;27764;50.278;19.032;2023-03-08T15:04:58;7;;7;;;;;;;
42106;SPS30;27764;50.278;19.032;2023-03-08T15:08:12;7;;7;;;;;;;
42106;SPS30;27764;50.278;19.032;2023-03-08T15:11:30;7;;7;;;;;;;
42106;SPS30;27764;50.278;19.032;2023-03-08T15:14:44;8;;8;;;;;;;
42106;SPS30;27764;50.278;19.032;2023-03-08T15:18:31;8;;8;;;;;;;
42106;SPS30;27764;50.278;19.032;2023-03-08T15:21:45;8;;8;;;;;;;
42106;SPS30;27764;50.278;19.032;2023-03-08T15:25:00;8;;8;;;;;;;
42106;SPS30;27764;50.278;19.032;2023-03-08T15:28:15;8;;8;;;;;;;
42106;SPS30;27764;50.278;19.032;2023-03-08T15:31:30;9;;9;;;;;;;
42106;SPS30;27764;50.278;19.032;2023-03-08T15:35:21;8;;8;;;;;;;
42106;SPS30;27764;50.278;19.032;2023-03-08T15:38:36;7;;7;;;;;;;
42106;SPS30;27764;50.278;19.032;2023-03-08T15:41:50;8;;8;;;;;;;
42106;SPS30;27764;50.278;19.032;2023-03-08T15:45:04;8;;8;;;;;;;
42106;SPS30;27764;50.278;19.032;2023-03-08T15:48:18;9;;9;;;;;;;
42106;SPS30;27764;50.278;19.032;2023-03-08T15:52:04;8;;8;;;;;;;
42106;SPS30;27764;50.278;19.032;2023-03-08T15:55:18;7;;7;;;;;;;
42106;SPS30;27764;50.278;19.032;2023-03-08T15:58:32;8;;8;;;;;;;
42106;SPS30;27764;50.278;19.032;2023-03-08T16:01:46;8;;8;;;;;;;
42106;SPS30;27764;50.278;19.032;2023-03-08T16:05:01;7;;7;;;;;;;
42106;SPS30;27764;50.278;19.032;2023-03-08T16:08:47;6;;6;;;;;;;
42106;SPS30;27764;50.278;19.032;2023-03-08T16:12:02;6;;6;;;;;;;
42106;SPS30;27764;50.278;19.032;2023-03-08T16:15:16;8;;8;;;;;;;
42106;SPS30;27764;50.278;19.032;2023-03-08T16:18:30;8;;8;;;;;;;
42106;SPS30;27764;50.278;19.032;2023-03-08T16:21:45;10;;10;;;;;;;
42106;SPS30;27764;50.278;19.032;2023-03-08T16:24:59;9;;9;;;;;;;
42106;SPS30;27764;50.278;19.032;2023-03-08T16:28:50;8;;8;;;;;;;
42106;SPS30;27764;50.278;19.032;2023-03-08T16:32:04;10;;10;;;;;;;
42106;SPS30;27764;50.278;19.032;2023-03-08T16:35:18;14;;14;;;;;;;
42106;SPS30;27764;50.278;19.032;2023-03-08T16:38:32;12;;12;;;;;;;
42106;SPS30;27764;50.278;19.032;2023-03-08T16:41:46;11;;11;;;;;;;
42106;SPS30;27764;50.278;19.032;2023-03-08T16:45:31;8;;8;;;;;;;
42106;SPS30;27764;50.278;19.032;2023-03-08T16:48:46;9;;9;;;;;;;
42106;SPS30;27764;50.278;19.032;2023-03-08T16:52:01;9;;9;;;;;;;
42106;SPS30;27764;50.278;19.032;2023-03-08T16:55:16;8;;8;;;;;;;
42106;SPS30;27764;50.278;19.032;2023-03-08T16:58:30;10;;10;;;;;;;
42106;SPS30;27764;50.278;19.032;2023-03-08T17:02:15;9;;9;;;;;;;
42106;SPS30;27764;50.278;19.032;2023-03-08T17:05:32;12;;12;;;;;;;
42106;SPS30;27764;50.278;19.032;2023-03-08T17:08:50;11;;11;;;;;;;
42106;SPS30;27764;50.278;19.032;2023-03-08T17:12:05;13;;13;;;;;;;
42106;SPS30;27764;50.278;19.032;2023-03-08T17:16:04;12;;12;;;;;;;
42106;SPS30;27764;50.278;19.032;2023-03-08T17:19:18;13;;13;;;;;;;
42106;SPS30;27764;50.278;19.032;2023-03-08T17:22:33;12;;12;;;;;;;
42106;SPS30;27764;50.278;19.032;2023-03-08T17:25:47;13;;13;;;;;;;
42106;SPS30;27764;50.278;19.032;2023-03-08T17:29:02;13;;12;;;;;;;
42106;SPS30;27764;50.278;19.032;2023-03-08T17:32:48;12;;12;;;;;;;
42106;SPS30;27764;50.278;19.032;2023-03-08T17:36:02;11;;11;;;;;;;
42106;SPS30;27764;50.278;19.032;2023-03-08T17:39:18;12;;12;;;;;;;
42106;SPS30;27764;50.278;19.032;2023-03-08T17:42:33;14;;14;;;;;;;
42106;SPS30;27764;50.278;19.032;2023-03-08T17:49:49;12;;12;;;;;;;
42106;SPS30;27764;50.278;19.032;2023-03-08T17:53:03;11;;11;;;;;;;
42106;SPS30;27764;50.278;19.032;2023-03-08T17:56:19;12;;12;;;;;;;
42106;SPS30;27764;50.278;19.032;2023-03-08T17:59:36;9;;9;;;;;;;
42106;SPS30;27764;50.278;19.032;2023-03-08T18:02:50;11;;11;;;;;;;
42106;SPS30;27764;50.278;19.032;2023-03-08T18:06:47;11;;11;;;;;;;
42106;SPS30;27764;50.278;19.032;2023-03-08T18:10:01;11;;11;;;;;;;
42106;SPS30;27764;50.278;19.032;2023-03-08T18:13:16;11;;11;;;;;;;
42106;SPS30;27764;50.278;19.032;2023-03-08T18:16:30;10;;10;;;;;;;
42106;SPS30;27764;50.278;19.032;2023-03-08T18:19:45;13;;13;;;;;;;
42106;SPS30;27764;50.278;19.032;2023-03-08T18:23:35;15;;15;;;;;;;
42106;SPS30;27764;50.278;19.032;2023-03-08T18:26:49;14;;14;;;;;;;
42106;SPS30;27764;50.278;19.032;2023-03-08T18:30:04;13;;13;;;;;;;
42106;SPS30;27764;50.278;19.032;2023-03-08T18:33:18;13;;13;;;;;;;
42106;SPS30;27764;50.278;19.032;2023-03-08T18:36:35;14;;14;;;;;;;
42106;SPS30;27764;50.278;19.032;2023-03-08T18:40:27;16;;16;;;;;;;
42106;SPS30;27764;50.278;19.032;2023-03-08T18:43:41;15;;15;;;;;;;
42106;SPS30;27764;50.278;19.032;2023-03-08T18:46:55;14;;14;;;;;;;
42106;SPS30;27764;50.278;19.032;2023-03-08T18:50:10;16;;16;;;;;;;
42106;SPS30;27764;50.278;19.032;2023-03-08T18:53:24;17;;17;;;;;;;
42106;SPS30;27764;50.278;19.032;2023-03-08T18:57:09;15;;15;;;;;;;
42106;SPS30;27764;50.278;19.032;2023-03-08T19:00:23;14;;14;;;;;;;
42106;SPS30;27764;50.278;19.032;2023-03-08T19:03:37;15;;15;;;;;;;
42106;SPS30;27764;50.278;19.032;2023-03-08T19:06:51;15;;14;;;;;;;
42106;SPS30;27764;50.278;19.032;2023-03-08T19:10:05;15;;15;;;;;;;
42106;SPS30;27764;50.278;19.032;2023-03-08T19:13:51;17;;17;;;;;;;
42106;SPS30;27764;50.278;19.032;2023-03-08T19:17:05;17;;17;;;;;;;
42106;SPS30;27764;50.278;19.032;2023-03-08T19:20:19;15;;15;;;;;;;
42106;SPS30;27764;50.278;19.032;2023-03-08T19:23:33;13;;13;;;;;;;
42106;SPS30;27764;50.278;19.032;2023-03-08T19:26:47;15;;15;;;;;;;
42106;SPS30;27764;50.278;19.032;2023-03-08T19:30:37;17;;17;;;;;;;
42106;SPS30;27764;50.278;19.032;2023-03-08T19:33:51;16;;16;;;;;;;
42106;SPS30;27764;50.278;19.032;2023-03-08T19:37:05;17;;17;;;;;;;
42106;SPS30;27764;50.278;19.032;2023-03-08T19:40:21;15;;15;;;;;;;
42106;SPS30;27764;50.278;19.032;2023-03-08T19:43:35;16;;16;;;;;;;
42106;SPS30;27764;50.278;19.032;2023-03-08T19:47:20;16;;16;;;;;;;
42106;SPS30;27764;50.278;19.032;2023-03-08T19:50:34;17;;17;;;;;;;
42106;SPS30;27764;50.278;19.032;2023-03-08T19:53:47;15;;15;;;;;;;
42106;SPS30;27764;50.278;19.032;2023-03-08T19:57:01;15;;15;;;;;;;
42106;SPS30;27764;50.278;19.032;2023-03-08T20:00:15;14;;14;;;;;;;
42106;SPS30;27764;50.278;19.032;2023-03-08T20:04:03;15;;15;;;;;;;
42106;SPS30;27764;50.278;19.032;2023-03-08T20:07:17;15;;15;;;;;;;
42106;SPS30;27764;50.278;19.032;2023-03-08T20:10:31;13;;13;;;;;;;
42106;SPS30;27764;50.278;19.032;2023-03-08T20:13:45;14;;14;;;;;;;
42106;SPS30;27764;50.278;19.032;2023-03-08T20:16:59;15;;15;;;;;;;
42106;SPS30;27764;50.278;19.032;2023-03-08T20:20:48;14;;14;;;;;;;
42106;SPS30;27764;50.278;19.032;2023-03-08T20:24:02;15;;15;;;;;;;
42106;SPS30;27764;50.278;19.032;2023-03-08T20:27:16;16;;16;;;;;;;
42106;SPS30;27764;50.278;19.032;2023-03-08T20:30:30;16;;16;;;;;;;
42106;SPS30;27764;50.278;19.032;2023-03-08T20:33:44;17;;17;;;;;;;
42106;SPS30;27764;50.278;19.032;2023-03-08T20:37:31;16;;16;;;;;;;
42106;SPS30;27764;50.278;19.032;2023-03-08T20:40:55;18;;18;;;;;;;
42106;SPS30;27764;50.278;19.032;2023-03-08T20:44:10;18;;18;;;;;;;
42106;SPS30;27764;50.278;19.032;2023-03-08T20:47:24;16;;15;;;;;;;
42106;SPS30;27764;50.278;19.032;2023-03-08T20:50:38;21;;21;;;;;;;
42106;SPS30;27764;50.278;19.032;2023-03-08T20:54:34;20;;20;;;;;;;
42106;SPS30;27764;50.278;19.032;2023-03-08T20:57:47;25;;25;;;;;;;
42106;SPS30;27764;50.278;19.032;2023-03-08T21:01:08;28;;28;;;;;;;
42106;SPS30;27764;50.278;19.032;2023-03-08T21:04:23;29;;29;;;;;;;
42106;SPS30;27764;50.278;19.032;2023-03-08T21:07:37;30;;30;;;;;;;
42106;SPS30;27764;50.278;19.032;2023-03-08T21:11:22;33;;33;;;;;;;
42106;SPS30;27764;50.278;19.032;2023-03-08T21:14:36;33;;32;;;;;;;
42106;SPS30;27764;50.278;19.032;2023-03-08T21:17:49;32;;32;;;;;;;
42106;SPS30;27764;50.278;19.032;2023-03-08T21:21:03;29;;29;;;;;;;
42106;SPS30;27764;50.278;19.032;2023-03-08T21:24:18;27;;27;;;;;;;
42106;SPS30;27764;50.278;19.032;2023-03-08T21:28:18;25;;25;;;;;;;
42106;SPS30;27764;50.278;19.032;2023-03-08T21:31:35;26;;26;;;;;;;
42106;SPS30;27764;50.278;19.032;2023-03-08T21:34:51;28;;28;;;;;;;
42106;SPS30;27764;50.278;19.032;2023-03-08T21:38:06;29;;29;;;;;;;
42106;SPS30;27764;50.278;19.032;2023-03-08T21:42:04;29;;29;;;;;;;
42106;SPS30;27764;50.278;19.032;2023-03-08T21:45:18;29;;29;;;;;;;
42106;SPS30;27764;50.278;19.032;2023-03-08T21:48:32;29;;29;;;;;;;
42106;SPS30;27764;50.278;19.032;2023-03-08T21:51:46;25;;25;;;;;;;
42106;SPS30;27764;50.278;19.032;2023-03-08T21:55:00;31;;31;;;;;;;
42106;SPS30;27764;50.278;19.032;2023-03-08T21:58:45;24;;24;;;;;;;
42106;SPS30;27764;50.278;19.032;2023-03-08T22:01:58;26;;26;;;;;;;
42106;SPS30;27764;50.278;19.032;2023-03-08T22:05:13;26;;26;;;;;;;
42106;SPS30;27764;50.278;19.032;2023-03-08T22:08:27;23;;23;;;;;;;
42106;SPS30;27764;50.278;19.032;2023-03-08T22:11:41;25;;25;;;;;;;
42106;SPS30;27764;50.278;19.032;2023-03-08T22:15:34;23;;23;;;;;;;
42106;SPS30;27764;50.278;19.032;2023-03-08T22:18:50;21;;21;;;;;;;
42106;SPS30;27764;50.278;19.032;2023-03-08T22:22:05;18;;18;;;;;;;
42106;SPS30;27764;50.278;19.032;2023-03-08T22:25:23;19;;19;;;;;;;
42106;SPS30;27764;50.278;19.032;2023-03-08T22:28:37;20;;20;;;;;;;
42106;SPS30;27764;50.278;19.032;2023-03-08T22:32:38;18;;18;;;;;;;
42106;SPS30;27764;50.278;19.032;2023-03-08T22:35:54;16;;16;;;;;;;
42106;SPS30;27764;50.278;19.032;2023-03-08T22:39:09;15;;15;;;;;;;
42106;SPS30;27764;50.278;19.032;2023-03-08T22:42:23;17;;17;;;;;;;
42106;SPS30;27764;50.278;19.032;2023-03-08T22:45:37;14;;14;;;;;;;
42106;SPS30;27764;50.278;19.032;2023-03-08T22:49:24;15;;15;;;;;;;
42106;SPS30;27764;50.278;19.032;2023-03-08T22:52:38;18;;18;;;;;;;
42106;SPS30;27764;50.278;19.032;2023-03-08T22:55:52;18;;18;;;;;;;
42106;SPS30;27764;50.278;19.032;2023-03-08T22:59:06;18;;18;;;;;;;
42106;SPS30;27764;50.278;19.032;2023-03-08T23:02:20;16;;16;;;;;;;
42106;SPS30;27764;50.278;19.032;2023-03-08T23:06:10;18;;18;;;;;;;
42106;SPS30;27764;50.278;19.032;2023-03-08T23:09:24;19;;19;;;;;;;
42106;SPS30;27764;50.278;19.032;2023-03-08T23:12:38;20;;20;;;;;;;
42106;SPS30;27764;50.278;19.032;2023-03-08T23:15:52;19;;19;;;;;;;
42106;SPS30;27764;50.278;19.032;2023-03-08T23:19:06;20;;20;;;;;;;
42106;SPS30;27764;50.278;19.032;2023-03-08T23:22:58;26;;26;;;;;;;
42106;SPS30;27764;50.278;19.032;2023-03-08T23:26:13;22;;22;;;;;;;
42106;SPS30;27764;50.278;19.032;2023-03-08T23:29:29;22;;22;;;;;;;
42106;SPS30;27764;50.278;19.032;2023-03-08T23:32:43;25;;25;;;;;;;
42106;SPS30;27764;50.278;19.032;2023-03-08T23:35:57;34;;34;;;;;;;
42106;SPS30;27764;50.278;19.032;2023-03-08T23:39:45;32;;32;;;;;;;
42106;SPS30;27764;50.278;19.032;2023-03-08T23:42:59;26;;26;;;;;;;
42106;SPS30;27764;50.278;19.032;2023-03-08T23:46:17;26;;26;;;;;;;
42106;SPS30;27764;50.278;19.032;2023-03-08T23:49:31;21;;21;;;;;;;
42106;SPS30;27764;50.278;19.032;2023-03-08T23:52:45;20;;20;;;;;;;
42106;SPS30;27764;50.278;19.032;2023-03-08T23:56:33;19;;19;;;;;;;
42106;SPS30;27764;50.278;19.032;2023-03-08T23:59:51;17;;17;;;;;;;
